OBBIOIBK

Guest
Details From OBBI - Bahrain Intl
To OIBK - Kish Island
Flight Number -
Tags Generated
Created
Modified
Stats Distance 180 nm / 333 km
Max Altitude 0 ft / 0 m
Waypoints 2
Social Downloads 3
Likes 0
Share VATSIM

Download

Looking for another format? Having issues loading an existing format? Contact us
Advertisement - Login to hide

Notes

Generated

Route

OBBI OIBK

ID Type Via Altitude Latitude Longitude Leg Dist Tot Dist Heading (true) Name
O OBBI APT - 0 ft / 0 m 26.27100˚ 50.62993˚ - 0 nm - -
O OIBK APT - 0 ft / 0 m 26.52756˚ 53.96192˚ 179 nm 179 nm 84° / 86° -

Altitude Profile

Advertisement - Login to hide

Weather


0- 5 10 15 20 25 30 35+ Temperature / ° C

Clouds and Precipitation
Forecast for 2017-12-14 18:00 UTC. Updated 2 hours ago

Ground ~20,000 ft ~40,000 ft Winds

OBBI

Details ICAO OBBI (BAH)
Name BAHRAIN INTL
Region Bahrain
Timezone Asia/Bahrain (UTC+3.0)
Stats Elevation 6 ft / 2 m (AMSL)
Location 26.267837° 50.637095°
Runways 2
Magnetic Variation 2.762° E

METAR

OBBI 141700Z 11007KT CAVOK 19/14 Q1016 NOSIG

Decode

TAF

TAF OBBI 141100Z 1412/1518 VRB05KT 9999 FEW030 BECMG 1414/1416 18012KT

Decode

Departure Runways

ID Width Length Bearing (true) Bearing (mag) Surface Threshold Offset Overrun Length
12L 197 ft / 60 m 12,893 ft / 3,930 m 122.74° 119.98° Asphalt 1,000 ft / 305 m 0 ft / 0 m
12R 148 ft / 45 m 8,303 ft / 2,531 m 122.76° 120.00° Asphalt 1,000 ft / 305 m 0 ft / 0 m
30L 148 ft / 45 m 8,303 ft / 2,531 m 302.77° 300.01° Asphalt 395 ft / 120 m 0 ft / 0 m
30R 197 ft / 60 m 12,893 ft / 3,930 m 302.75° 299.99° Asphalt 1,000 ft / 305 m 0 ft / 0 m

OIBK

Details ICAO OIBK (KIH)
Name Kish Island
Region Iran
Timezone Asia/Tehran (UTC+3.5)
Stats Elevation 101 ft / 31 m (AMSL)
Location 26.527005° 53.980242°
Runways 3
Magnetic Variation 2.427° E

METAR

OIBK 141700Z 00000KT CAVOK 20/10 Q1017

Decode

TAF

TAF OIBK 141110Z 1412/1518 07004MPS 7000 NSC TEMPO 1412/1415 03009MPS BECMG 1415/1417 4000 HZ SCT025 BECMG 1503/1505 6000 FEW030CB SCT035 BKN080 TEMPO 1512/1518 4000 TSRA SCT025CB SCT030 OVC080

Decode

Destination Runways

ID Width Length Bearing (true) Bearing (mag) Surface Threshold Offset Overrun Length
09 148 ft / 45 m 11,986 ft / 3,653 m 94.89° 92.46° Asphalt 0 ft / 0 m 1,181 ft / 360 m
09L 215 ft / 66 m 11,986 ft / 3,653 m 94.88° 92.45° Asphalt 0 ft / 0 m 0 ft / 0 m
09R 148 ft / 45 m 11,986 ft / 3,653 m 94.89° 92.46° Asphalt 0 ft / 0 m 1,181 ft / 360 m
27 148 ft / 45 m 11,986 ft / 3,653 m 274.91° 272.48° Asphalt 0 ft / 0 m 190 ft / 58 m
27L 148 ft / 45 m 11,986 ft / 3,653 m 274.90° 272.47° Asphalt 0 ft / 0 m 190 ft / 58 m
27R 215 ft / 66 m 11,986 ft / 3,653 m 274.90° 272.47° Asphalt 0 ft / 0 m 0 ft / 0 m